CYZS

Coral Harbour

Airport
ICAO code
CYZS
Summary
ICAO Region
NAM
ICAO Territory
Location

Coral Harbour, Nunavut,

Coordinates
64° 11' 36" N , 83° 21' 34" W
Metar
Observation
CYZS 280500Z 35012KT 15SM SKC M27/M29 A3003 RMK SLP180
Station
Coral Harbour, N. W. T.
Date/Time
2022-11-28 05:00:00
Wind direction
350°
Wind speed
12 kts
Lowest cloud amount
n/a
Temperature
-27°C
Dew point
-29°C
Humidity
82%
Weather condition
n/a

Runways

Designator Length Width Surface Rops
16T/34T 1524 30 GVL No/No

Airport map

Aerial View

SKYbrary Partners:

Safety knowledge contributed by: